Aeroporto :
LOGIN :

Iscrizione | Disclaimer

   EN    FR    IT 

 










Sommario :    VFR   VFR Marginale   IFR   IFR Intensivo   IFR Molto Intensivo
Visibilità : 
Base nubi : 
>= 8 km
>= 3000ft
5 / 8 km
1000 / 3000 ft
1500m / 5 km
500 / 1000 ft
800 / 1500m
200 / 500 ft
< 800m
< 200 ft
Simboli :   Temporali  Nebbia  Neve Forte  Precipitazioni Forti  Vento > 20 kt
SIGMETs :   Varie  Temporali  Ghiacco  Turbolenza  Onda orograficha  Ceneri Vulcaniche






- Altitudine del aeroporto : 1325 ft
- Codice IATA : EBU


LFMH - St-Etienne Boutheon

ULTIMO METAR :
  • 230900Z AUTO 30006KT 260V330 9999 OVC026 20/15 Q1023

METARs OBSOLETI :
  • 230830Z AUTO 32005KT 290V360 9999 FEW022 BKN028 20/15 Q1023
  • 230800Z AUTO 34005KT 290V050 9999 FEW011 BKN030 21/16 Q1023
  • 230730Z AUTO 31004KT 240V020 9999 FEW016 BKN030 20/16 Q1024
  • 230700Z AUTO VRB03KT 9999 OVC031 19/15 Q1024
  • 230630Z AUTO 28004KT 250V320 9999 FEW014 OVC030 18/15 Q1024
  • 230600Z AUTO VRB01KT 9999 OVC031 17/15 Q1023
  • 230530Z AUTO 19002KT 9999 OVC030 15/14 Q1023
  • 230500Z AUTO 15003KT 9999 BKN030 13/13 Q1023
  • 230430Z AUTO 16001KT 9999 BKN032 12/12 Q1023
  • 230400Z AUTO VRB02KT 9999 FEW034 13/13 Q1023

Previsioni scadute.
ATIS : +33 4 77 36 17 51



MetMap, La meteo Aeronautica in un colpo d'occhio ! - Copyright ORBIFLY Dicembre 2007 - Disclaimer

ORBIFLY MET'MAP TEAM :

Programmazione e sviluppo : Alexandra Zaïnal
Concezione : Baudouin d'Aumeries
Supporto tecnico e logistico : Manuel Goepfert
Aiuto : Marc-Olivier Méhu
Aiuto per la traduzione : Arnaldo La Scala




FONTI E CREDITI :

   NOAA